Time;durP1;ratioP1;P1;durP2;ratioP2;P2;SDS_P1;SDS_P2;PMS_P1;PMS_P2;Temp;Humidity;BMP_temperature;BMP_pressure;BME280_temperature;BME280_humidity;BME280_pressure;Samples;Min_cycle;Max_cycle;Signal;HPM_P1;HPM_P2
2022/04/10 00:00:07;;;;;;;5.43;3.00;;;;;;;4.04;84.27;98923.28;5090398;28;20189;-59
2022/04/10 00:02:39;;;;;;;7.50;3.43;;;;;;;4.01;85.54;98927.84;5090929;28;20699;-59
2022/04/10 00:05:07;;;;;;;8.53;3.10;;;;;;;3.99;85.82;98926.19;5090144;28;20193;-58
2022/04/10 00:07:33;;;;;;;8.60;4.57;;;;;;;3.96;86.96;98920.41;5090128;28;20220;-59
2022/04/10 00:10:00;;;;;;;6.60;2.80;;;;;;;3.98;86.84;98923.69;5089512;28;20186;-59
2022/04/10 00:12:28;;;;;;;6.70;3.50;;;;;;;3.90;88.02;98921.63;5090670;28;20205;-58
2022/04/10 00:14:55;;;;;;;7.70;3.00;;;;;;;3.91;87.38;98923.28;5090033;28;20185;-59
2022/04/10 00:17:22;;;;;;;6.77;3.20;;;;;;;3.93;87.41;98925.75;5090168;28;20272;-58
2022/04/10 00:19:49;;;;;;;5.83;3.27;;;;;;;3.91;88.00;98923.28;5090283;28;20681;-59
2022/04/10 00:22:15;;;;;;;6.50;2.80;;;;;;;3.88;86.71;98926.06;5090407;28;20182;-58
2022/04/10 00:24:43;;;;;;;7.40;3.60;;;;;;;3.91;86.16;98925.88;5089724;28;20363;-59
2022/04/10 00:27:13;;;;;;;5.67;2.90;;;;;;;3.99;85.75;98925.34;5090149;28;20214;-59
2022/04/10 00:29:42;;;;;;;5.47;3.00;;;;;;;3.94;84.16;98928.25;5088530;28;20255;-59
2022/04/10 00:32:09;;;;;;;8.63;3.23;;;;;;;3.93;82.79;98930.94;5090356;28;20189;-59
2022/04/10 00:34:35;;;;;;;6.67;3.30;;;;;;;3.96;83.07;98935.88;5088259;28;20193;-59
2022/04/10 00:37:02;;;;;;;6.07;2.70;;;;;;;3.97;82.97;98937.53;5079477;28;20825;-58
2022/04/10 00:39:29;;;;;;;7.33;3.30;;;;;;;3.93;81.77;98939.50;5081174;28;20300;-58
2022/04/10 00:41:56;;;;;;;6.37;2.70;;;;;;;3.92;83.12;98937.84;5084471;28;20190;-59
2022/04/10 00:44:23;;;;;;;4.30;3.10;;;;;;;3.91;82.28;98936.22;5078704;28;20194;-58
2022/04/10 00:46:51;;;;;;;6.30;3.00;;;;;;;3.93;81.86;98936.09;5071803;28;20202;-58
2022/04/10 00:49:19;;;;;;;7.50;3.10;;;;;;;3.89;81.03;98940.66;5076725;28;20229;-58
2022/04/10 00:51:47;;;;;;;4.67;3.10;;;;;;;3.83;82.02;98938.47;5088235;28;20192;-59
2022/04/10 00:54:18;;;;;;;5.43;2.93;;;;;;;3.77;83.09;98942.25;5089229;28;20658;-58
2022/04/10 00:56:46;;;;;;;4.00;2.70;;;;;;;3.65;84.47;98938.72;5088618;28;20188;-58
2022/04/10 00:59:14;;;;;;;4.90;2.77;;;;;;;3.56;85.64;98943.66;5070111;28;20651;-58
2022/04/10 01:01:44;;;;;;;4.13;2.80;;;;;;;3.46;86.72;98938.25;5068080;28;20190;-59
2022/04/10 01:04:14;;;;;;;4.13;2.30;;;;;;;3.43;87.95;98943.59;5068084;28;20281;-59
2022/04/10 01:06:41;;;;;;;7.13;2.43;;;;;;;3.31;88.84;98947.78;5067968;28;20617;-58
2022/04/10 01:09:09;;;;;;;5.93;2.80;;;;;;;3.25;89.49;98947.25;5067452;28;20760;-58
2022/04/10 01:11:37;;;;;;;3.77;2.40;;;;;;;3.20;90.12;98956.19;5067873;28;20211;-58
2022/04/10 01:14:05;;;;;;;4.13;2.30;;;;;;;3.17;91.24;98943.50;5067962;28;20619;-58
2022/04/10 01:16:35;;;;;;;5.53;2.50;;;;;;;3.14;91.53;98954.00;5068406;28;20186;-58
2022/04/10 01:19:03;;;;;;;5.63;2.60;;;;;;;3.08;92.44;98950.88;5068224;28;20701;-59
2022/04/10 01:21:38;;;;;;;6.27;2.43;;;;;;;3.06;92.49;98950.16;5068077;28;20277;-58
2022/04/10 01:24:08;;;;;;;6.47;2.37;;;;;;;3.04;93.14;98954.59;5067802;28;20201;-58
2022/04/10 01:26:35;;;;;;;4.27;2.40;;;;;;;2.99;94.15;98953.19;5068308;28;20298;-58
2022/04/10 01:29:06;;;;;;;5.87;2.90;;;;;;;2.89;93.92;98950.38;5068416;28;20213;-58
2022/04/10 01:31:36;;;;;;;5.50;2.80;;;;;;;2.81;93.79;98948.22;5067803;28;20821;-58
2022/04/10 01:34:06;;;;;;;5.00;2.90;;;;;;;2.76;95.03;98955.41;5072919;28;20190;-58
2022/04/10 01:36:38;;;;;;;5.70;2.80;;;;;;;2.76;96.58;98953.69;5090392;28;20276;-58
2022/04/10 01:39:09;;;;;;;6.80;2.53;;;;;;;2.81;96.08;98961.13;5089860;28;20224;-58
2022/04/10 01:41:38;;;;;;;4.40;2.50;;;;;;;2.70;95.38;98951.47;5067983;28;20248;-58
2022/04/10 01:44:07;;;;;;;3.80;2.53;;;;;;;2.78;95.47;98956.16;5068786;28;20186;-58
2022/04/10 01:46:36;;;;;;;4.60;2.60;;;;;;;2.69;94.90;98956.72;5068028;28;20195;-58
2022/04/10 01:49:06;;;;;;;4.77;2.90;;;;;;;2.55;95.91;98953.25;5068164;28;20666;-58
2022/04/10 01:51:34;;;;;;;3.77;2.47;;;;;;;2.47;95.55;98952.88;5070968;28;20681;-58
2022/04/10 01:54:01;;;;;;;7.40;3.10;;;;;;;2.42;96.01;98953.13;5071275;28;20217;-58
2022/04/10 01:56:30;;;;;;;6.30;3.17;;;;;;;2.44;96.55;98953.03;5071283;28;20205;-58
2022/04/10 01:58:57;;;;;;;5.07;2.87;;;;;;;2.42;97.06;98952.31;5071659;28;20769;-58
2022/04/10 02:01:25;;;;;;;5.47;2.63;;;;;;;2.43;96.51;98954.78;5071134;28;20200;-58
2022/04/10 02:03:53;;;;;;;4.63;2.70;;;;;;;2.49;97.34;98954.41;5071314;28;20249;-58
2022/04/10 02:06:21;;;;;;;7.60;3.00;;;;;;;2.47;97.04;98951.09;5071272;28;20205;-58
2022/04/10 02:08:52;;;;;;;5.50;2.70;;;;;;;2.46;97.23;98948.63;5070954;28;20295;-58
2022/04/10 02:11:22;;;;;;;5.57;2.90;;;;;;;2.36;96.99;98938.88;5071070;28;20192;-58
2022/04/10 02:13:55;;;;;;;5.17;3.23;;;;;;;2.26;96.39;98936.91;5071272;28;20197;-58
2022/04/10 02:16:23;;;;;;;6.67;2.70;;;;;;;2.23;96.72;98937.94;5071060;28;20244;-58
2022/04/10 02:18:50;;;;;;;5.30;2.43;;;;;;;2.21;98.15;98935.44;5071310;28;20352;-58
2022/04/10 02:21:18;;;;;;;7.03;2.77;;;;;;;2.15;98.70;98935.78;5070746;28;20557;-58
2022/04/10 02:23:46;;;;;;;6.47;2.70;;;;;;;2.04;99.48;98933.84;5071223;28;20658;-58
2022/04/10 02:26:13;;;;;;;7.27;3.10;;;;;;;2.05;99.79;98934.69;5070730;28;20636;-58
2022/04/10 02:28:42;;;;;;;6.63;2.90;;;;;;;2.03;100.00;98932.19;5072145;28;20324;-58
2022/04/10 02:31:10;;;;;;;6.87;3.00;;;;;;;2.05;100.00;98929.53;5070625;28;20205;-58
2022/04/10 02:33:37;;;;;;;4.00;2.70;;;;;;;2.06;100.00;98926.84;5073621;28;20261;-58
2022/04/10 02:36:05;;;;;;;4.77;2.40;;;;;;;2.09;100.00;98931.03;5090958;28;20187;-58
2022/04/10 02:38:34;;;;;;;6.57;3.37;;;;;;;2.11;100.00;98931.75;5099142;28;20205;-58
2022/04/10 02:41:01;;;;;;;7.73;2.70;;;;;;;2.20;100.00;98936.34;5111200;28;20284;-58
2022/04/10 02:43:29;;;;;;;5.27;2.80;;;;;;;2.21;100.00;98930.28;5111191;28;20198;-58
2022/04/10 02:46:01;;;;;;;6.40;2.87;;;;;;;2.20;100.00;98940.69;5110569;28;20197;-58
2022/04/10 02:48:30;;;;;;;5.93;2.90;;;;;;;2.18;100.00;98939.94;5111237;28;20217;-58
2022/04/10 02:51:02;;;;;;;4.60;2.60;;;;;;;2.20;100.00;98946.66;5111059;28;20196;-58
2022/04/10 02:53:30;;;;;;;5.20;3.30;;;;;;;2.17;99.91;98933.94;5111082;28;20189;-58
2022/04/10 02:55:58;;;;;;;6.47;3.00;;;;;;;2.10;99.99;98942.97;5110643;28;20189;-58
2022/04/10 02:58:26;;;;;;;7.77;3.00;;;;;;;2.00;100.00;98934.94;5110776;28;20205;-58
2022/04/10 03:00:52;;;;;;;6.10;2.83;;;;;;;1.99;100.00;98940.19;5110872;28;20196;-58
2022/04/10 03:03:19;;;;;;;6.20;3.27;;;;;;;1.89;100.00;98933.00;5111048;28;20194;-58
2022/04/10 03:05:48;;;;;;;5.23;2.67;;;;;;;1.80;100.00;98936.09;5110760;28;20244;-58
2022/04/10 03:08:16;;;;;;;5.10;3.27;;;;;;;1.87;100.00;98937.41;5111848;28;20216;-58
2022/04/10 03:10:43;;;;;;;5.20;3.10;;;;;;;1.86;100.00;98943.47;5111301;28;20193;-58
2022/04/10 03:13:10;;;;;;;4.27;2.73;;;;;;;1.93;100.00;98946.50;5112258;28;20222;-58
2022/04/10 03:15:37;;;;;;;4.13;2.70;;;;;;;2.01;100.00;98941.75;5110423;27;20191;-57
2022/04/10 03:18:04;;;;;;;5.40;3.30;;;;;;;2.05;100.00;98952.72;5110728;28;20270;-58
2022/04/10 03:20:31;;;;;;;7.17;2.93;;;;;;;2.05;100.00;98955.28;5110563;28;20194;-58
2022/04/10 03:23:00;;;;;;;5.00;3.20;;;;;;;2.09;100.00;98956.78;5110081;28;20288;-58
2022/04/10 03:25:27;;;;;;;5.43;2.80;;;;;;;2.09;100.00;98958.50;5110243;28;20200;-58
2022/04/10 03:27:54;;;;;;;5.63;3.37;;;;;;;2.08;100.00;98957.69;5111690;28;20215;-58
2022/04/10 03:30:21;;;;;;;5.17;2.97;;;;;;;2.12;100.00;98964.28;5110229;28;20193;-57
2022/04/10 03:32:51;;;;;;;5.03;2.93;;;;;;;2.18;100.00;98963.94;5110521;28;20577;-58
2022/04/10 03:35:18;;;;;;;4.80;3.30;;;;;;;2.22;100.00;98969.75;5094057;28;20205;-58
2022/04/10 03:37:45;;;;;;;5.43;3.47;;;;;;;2.26;100.00;98970.38;5090798;28;20217;-58
2022/04/10 03:40:14;;;;;;;4.73;3.30;;;;;;;2.33;100.00;98974.25;5100299;28;20657;-57
2022/04/10 03:42:43;;;;;;;5.53;2.60;;;;;;;2.27;100.00;98970.31;5110345;28;20197;-57
2022/04/10 03:45:12;;;;;;;5.03;3.00;;;;;;;2.31;100.00;98981.25;5109644;28;20836;-57
2022/04/10 03:47:39;;;;;;;8.10;3.30;;;;;;;2.34;100.00;98973.34;5109924;28;20297;-58
2022/04/10 03:50:07;;;;;;;4.53;3.13;;;;;;;2.38;99.88;98972.25;5109713;28;20199;-58
2022/04/10 03:52:35;;;;;;;7.77;3.60;;;;;;;2.41;99.43;98976.41;5110097;28;20733;-58
2022/04/10 03:55:02;;;;;;;6.37;2.97;;;;;;;2.44;100.00;98974.47;5109562;28;20185;-58
2022/04/10 03:57:31;;;;;;;4.70;3.13;;;;;;;2.48;99.67;98980.28;5110118;28;20240;-58
2022/04/10 04:00:00;;;;;;;8.23;3.40;;;;;;;2.47;100.00;98974.28;5109311;28;20669;-58
2022/04/10 04:02:30;;;;;;;4.47;2.57;;;;;;;2.53;99.99;98982.59;5111171;28;20185;-58
2022/04/10 04:04:58;;;;;;;6.97;3.70;;;;;;;2.58;99.22;98976.25;5109509;28;20283;-57
2022/04/10 04:07:24;;;;;;;6.07;3.33;;;;;;;2.65;98.99;98976.69;5110869;28;20181;-58
2022/04/10 04:09:52;;;;;;;7.53;3.57;;;;;;;2.71;99.11;98981.50;5109423;28;20563;-58
2022/04/10 04:12:21;;;;;;;5.23;3.40;;;;;;;2.77;97.81;98988.84;5111332;28;20204;-58
2022/04/10 04:14:50;;;;;;;7.83;4.30;;;;;;;2.87;97.97;98996.03;5108797;28;20190;-58
2022/04/10 04:17:16;;;;;;;7.33;4.40;;;;;;;2.92;97.27;98988.84;5109570;28;20284;-58
2022/04/10 04:19:46;;;;;;;8.60;4.23;;;;;;;3.00;96.05;98998.69;5109419;28;20197;-58
2022/04/10 04:22:13;;;;;;;7.73;4.30;;;;;;;3.08;91.79;99005.06;5109642;28;20185;-58
2022/04/10 04:24:40;;;;;;;9.43;4.60;;;;;;;3.14;91.40;99003.84;5108811;28;20195;-58
2022/04/10 04:27:08;;;;;;;7.90;3.60;;;;;;;3.21;90.63;99002.53;5109709;28;20192;-58
2022/04/10 04:29:36;;;;;;;8.17;4.10;;;;;;;3.28;87.61;99012.47;5109092;28;20209;-58
2022/04/10 04:32:05;;;;;;;5.70;3.40;;;;;;;3.35;88.64;99016.34;5110919;28;20725;-58
2022/04/10 04:34:32;;;;;;;11.00;3.50;;;;;;;3.41;87.77;99013.38;5099725;28;20198;-58
2022/04/10 04:37:00;;;;;;;6.73;3.50;;;;;;;3.44;86.74;99013.19;5088931;28;20207;-58
2022/04/10 04:39:26;;;;;;;7.10;3.73;;;;;;;3.47;86.52;99014.75;5092574;28;20208;-58
2022/04/10 04:41:53;;;;;;;7.10;3.80;;;;;;;3.49;86.28;99018.91;5102911;28;20201;-59
2022/04/10 04:44:21;;;;;;;5.70;3.70;;;;;;;3.48;86.26;99019.81;5108492;28;20201;-58
2022/04/10 04:46:47;;;;;;;10.77;4.07;;;;;;;3.51;86.20;99017.06;5109436;28;20244;-58
2022/04/10 04:49:16;;;;;;;9.07;3.70;;;;;;;3.51;86.99;99022.22;5108934;28;20221;-58
2022/04/10 04:51:43;;;;;;;10.23;5.13;;;;;;;3.54;88.18;99024.59;5109001;28;20213;-58
2022/04/10 04:54:11;;;;;;;8.07;4.93;;;;;;;3.54;88.51;99031.50;5108759;28;20244;-58
2022/04/10 04:56:40;;;;;;;12.80;4.70;;;;;;;3.53;88.15;99035.00;5109164;28;20796;-58
2022/04/10 04:59:08;;;;;;;8.37;4.40;;;;;;;3.51;89.42;99035.13;5109166;28;20215;-58
2022/04/10 05:01:36;;;;;;;7.63;4.73;;;;;;;3.51;89.70;99039.44;5108843;28;20185;-58
2022/04/10 05:04:03;;;;;;;8.27;4.73;;;;;;;3.50;90.46;99048.09;5110178;28;20189;-58
2022/04/10 05:06:32;;;;;;;12.10;5.20;;;;;;;3.51;90.65;99044.59;5108899;28;20671;-58
2022/04/10 05:08:59;;;;;;;11.23;6.20;;;;;;;3.49;91.67;99052.44;5109012;28;20228;-58
2022/04/10 05:11:26;;;;;;;9.57;5.30;;;;;;;3.52;91.28;99046.25;5108677;28;20189;-59
2022/04/10 05:13:53;;;;;;;7.73;4.90;;;;;;;3.52;90.11;99052.25;5108710;28;20280;-59
2022/04/10 05:16:21;;;;;;;10.63;5.13;;;;;;;3.54;89.78;99047.00;5108723;28;20193;-58
2022/04/10 05:18:49;;;;;;;9.37;5.27;;;;;;;3.62;89.53;99056.84;5109055;28;20205;-58
2022/04/10 05:21:19;;;;;;;9.30;5.30;;;;;;;3.68;88.32;99062.44;5108577;28;20198;-58
2022/04/10 05:23:48;;;;;;;8.73;4.60;;;;;;;3.71;85.46;99058.84;5108883;28;20213;-58
2022/04/10 05:26:19;;;;;;;12.90;5.70;;;;;;;3.81;84.48;99072.00;5110382;28;20247;-58
2022/04/10 05:28:51;;;;;;;10.37;4.93;;;;;;;3.85;84.98;99078.63;5112781;28;20321;-58
2022/04/10 05:31:19;;;;;;;9.57;5.80;;;;;;;3.92;84.19;99081.66;5112666;28;20253;-58
2022/04/10 05:33:48;;;;;;;9.73;5.10;;;;;;;3.92;81.91;99082.50;5109744;28;20186;-58
2022/04/10 05:36:17;;;;;;;9.30;5.53;;;;;;;3.99;82.32;99081.19;5091940;28;20188;-58
2022/04/10 05:38:47;;;;;;;9.77;4.63;;;;;;;4.06;82.08;99083.38;5092152;28;20206;-59
2022/04/10 05:41:17;;;;;;;6.40;4.30;;;;;;;4.16;83.46;99083.59;5099162;28;20190;-59
2022/04/10 05:43:48;;;;;;;0.00;0.00;;;;;;;4.24;84.38;99094.28;5110546;28;20197;-57
2022/04/10 05:46:16;;;;;;;0.00;0.00;;;;;;;4.28;85.17;99085.41;5112149;28;20193;-58
2022/04/10 05:48:47;;;;;;;0.00;0.00;;;;;;;4.31;85.11;99092.97;5112370;28;20209;-58
2022/04/10 05:51:16;;;;;;;0.00;0.00;;;;;;;4.37;83.96;99096.88;5111836;28;20197;-58
2022/04/10 05:53:42;;;;;;;0.00;0.00;;;;;;;4.40;82.24;99099.28;5113851;28;20205;-58
2022/04/10 05:56:11;;;;;;;0.00;0.00;;;;;;;4.49;82.29;99098.69;5112048;28;20266;-58
2022/04/10 05:58:43;;;;;;;0.00;0.00;;;;;;;4.53;81.14;99102.72;5112447;28;20210;-58
2022/04/10 06:01:11;;;;;;;0.00;0.00;;;;;;;4.61;79.27;99112.56;5112080;28;20198;-57
2022/04/10 06:03:38;;;;;;;0.00;0.00;;;;;;;4.63;79.78;99107.28;5112443;28;20224;-58
2022/04/10 06:06:09;;;;;;;0.00;0.00;;;;;;;4.70;79.42;99111.13;5111711;28;20191;-57
2022/04/10 06:08:44;;;;;;;0.00;0.00;;;;;;;4.74;78.53;99110.00;5112054;28;20217;-57
2022/04/10 06:11:13;;;;;;;0.00;0.00;;;;;;;4.77;77.26;99106.41;5111880;28;20235;-57
2022/04/10 06:13:42;;;;;;;0.00;0.00;;;;;;;4.81;77.98;99116.41;5112016;28;20675;-58
2022/04/10 06:16:13;;;;;;;0.00;0.00;;;;;;;4.95;78.14;99120.66;5111445;28;20191;-58
2022/04/10 06:18:43;;;;;;;0.00;0.00;;;;;;;5.03;76.55;99122.75;5111976;28;20239;-58
2022/04/10 06:21:09;;;;;;;0.00;0.00;;;;;;;5.12;77.88;99129.06;5111565;28;20196;-58
2022/04/10 06:23:36;;;;;;;0.00;0.00;;;;;;;5.19;76.17;99122.53;5111901;28;20292;-58
2022/04/10 06:26:14;;;;;;;0.00;0.00;;;;;;;5.11;75.93;99115.31;5111388;28;20603;-58
2022/04/10 06:28:41;;;;;;;0.00;0.00;;;;;;;5.23;75.89;99116.22;5111344;28;20546;-58
2022/04/10 06:31:12;;;;;;;0.00;0.00;;;;;;;5.26;75.05;99118.59;5111588;28;20194;-58
2022/04/10 06:33:40;;;;;;;0.00;0.00;;;;;;;5.26;75.09;99115.19;5109828;28;20186;-58
2022/04/10 06:36:07;;;;;;;0.00;0.00;;;;;;;5.32;73.59;99127.69;5090722;28;20243;-58
2022/04/10 06:38:34;;;;;;;0.00;0.00;;;;;;;5.31;72.11;99123.44;5091027;28;20210;-58
2022/04/10 06:41:07;;;;;;;0.00;0.00;;;;;;;5.31;73.30;99128.63;5092971;28;20284;-58
2022/04/10 06:43:35;;;;;;;0.00;0.00;;;;;;;5.31;74.50;99133.81;5103836;28;20246;-58
2022/04/10 06:46:21;;;;;;;0.00;0.00;;;;;;;5.38;74.59;99132.44;5112881;28;20246;-58
2022/04/10 06:49:13;;;;;;;0.00;0.00;;;;;;;5.39;73.68;99131.53;5111015;28;20209;-58
2022/04/10 06:51:43;;;;;;;0.00;0.00;;;;;;;5.44;73.03;99128.63;5111230;28;20193;-58
2022/04/10 06:54:11;;;;;;;0.00;0.00;;;;;;;5.49;74.09;99128.31;5110691;28;20261;-57
2022/04/10 06:56:38;;;;;;;0.00;0.00;;;;;;;5.62;73.22;99142.06;5111174;28;20198;-57
2022/04/10 06:59:06;;;;;;;0.00;0.00;;;;;;;5.68;73.02;99136.47;5111247;28;20218;-58
2022/04/10 07:01:34;;;;;;;0.00;0.00;;;;;;;5.82;72.08;99134.66;5110986;28;20232;-58
2022/04/10 07:04:01;;;;;;;0.00;0.00;;;;;;;5.78;73.32;99136.66;5110532;28;20210;-58
2022/04/10 07:06:30;;;;;;;0.00;0.00;;;;;;;5.69;70.84;99137.31;5110341;28;20222;-57
2022/04/10 07:08:58;;;;;;;0.00;0.00;;;;;;;5.85;70.39;99134.44;5110891;28;20234;-58
2022/04/10 07:11:32;;;;;;;0.00;0.00;;;;;;;5.95;70.57;99135.47;5110522;28;20270;-58
2022/04/10 07:14:02;;;;;;;0.00;0.00;;;;;;;6.02;69.41;99141.06;5110577;28;20190;-57
2022/04/10 07:16:30;;;;;;;0.00;0.00;;;;;;;6.04;69.28;99134.84;5110653;28;20194;-58
2022/04/10 07:18:57;;;;;;;0.00;0.00;;;;;;;5.89;71.03;99130.72;5110445;28;20213;-58
2022/04/10 07:24:07;;;;;;;0.00;0.00;;;;;;;5.59;70.63;99142.28;5109563;28;20200;-58
2022/04/10 07:26:40;;;;;;;0.00;0.00;;;;;;;5.59;71.39;99145.72;5110365;28;20197;-57
2022/04/10 07:29:12;;;;;;;0.00;0.00;;;;;;;5.74;70.83;99153.34;5110702;28;20304;-58
2022/04/10 07:31:42;;;;;;;0.00;0.00;;;;;;;5.83;70.70;99157.03;5110073;28;20246;-58
2022/04/10 07:34:09;;;;;;;0.00;0.00;;;;;;;5.95;69.99;99158.78;5103881;28;20189;-58
2022/04/10 07:36:59;;;;;;;0.00;0.00;;;;;;;6.18;69.09;99148.59;5088001;28;20206;-58
2022/04/10 07:39:31;;;;;;;0.00;0.00;;;;;;;6.48;68.46;99153.31;5089915;28;20210;-58
2022/04/10 07:42:10;;;;;;;0.00;0.00;;;;;;;6.69;67.16;99159.63;5092242;28;20336;-58
2022/04/10 07:44:38;;;;;;;0.00;0.00;;;;;;;6.84;66.58;99163.69;5102593;28;20193;-57
2022/04/10 07:49:50;;;;;;;0.00;0.00;;;;;;;6.79;65.75;99156.25;5108926;28;20205;-58
2022/04/10 07:52:17;;;;;;;0.00;0.00;;;;;;;7.11;66.36;99164.34;5110364;28;20312;-58
2022/04/10 07:54:58;;;;;;;0.00;0.00;;;;;;;7.31;66.97;99162.84;5109780;28;20221;-58
2022/04/10 07:57:26;;;;;;;0.00;0.00;;;;;;;7.33;65.01;99163.56;5109713;28;20285;-58
2022/04/10 07:59:53;;;;;;;0.00;0.00;;;;;;;7.42;66.74;99167.22;5109792;28;20196;-57
2022/04/10 08:02:42;;;;;;;0.00;0.00;;;;;;;7.75;64.03;99170.75;5111448;28;20193;-57
2022/04/10 08:05:20;;;;;;;0.00;0.00;;;;;;;8.01;60.23;99179.13;5109477;28;20204;-57
2022/04/10 08:08:19;;;;;;;0.00;0.00;;;;;;;7.80;63.10;99174.66;5106352;28;20201;-57
2022/04/10 08:10:46;;;;;;;0.00;0.00;;;;;;;7.43;62.62;99179.25;5110553;28;20213;-57
2022/04/10 08:13:13;;;;;;;0.00;0.00;;;;;;;7.49;63.11;99174.41;5111314;27;20196;-57
2022/04/10 08:15:40;;;;;;;0.00;0.00;;;;;;;7.45;63.32;99177.38;5110678;28;20186;-57
2022/04/10 08:18:08;;;;;;;0.00;0.00;;;;;;;7.73;63.22;99185.66;5110888;28;20206;-57
2022/04/10 08:20:35;;;;;;;0.00;0.00;;;;;;;7.71;63.08;99190.94;5110492;28;20224;-57
2022/04/10 08:23:02;;;;;;;0.00;0.00;;;;;;;7.87;62.18;99193.22;5111039;28;20177;-56
2022/04/10 08:25:28;;;;;;;0.00;0.00;;;;;;;7.69;60.69;99195.44;5110335;28;20178;-57
2022/04/10 08:27:56;;;;;;;0.00;0.00;;;;;;;7.64;63.68;99195.81;5110989;28;20209;-57
2022/04/10 08:30:23;;;;;;;0.00;0.00;;;;;;;8.06;62.03;99202.97;5110587;28;20691;-57
2022/04/10 08:32:50;;;;;;;0.00;0.00;;;;;;;8.09;61.54;99207.94;5110525;28;20186;-56
2022/04/10 08:35:18;;;;;;;0.00;0.00;;;;;;;8.14;62.99;99202.38;5094998;28;20210;-57
2022/04/10 08:37:45;;;;;;;0.00;0.00;;;;;;;8.40;61.48;99207.28;5090184;28;20285;-57
2022/04/10 08:40:12;;;;;;;0.00;0.00;;;;;;;8.53;60.06;99204.53;5090100;28;20180;-57
2022/04/10 08:42:39;;;;;;;0.00;0.00;;;;;;;8.35;60.80;99204.22;5090579;28;20180;-57
2022/04/10 08:45:08;;;;;;;0.00;0.00;;;;;;;8.05;60.91;99214.34;5100379;28;20194;-57
2022/04/10 08:47:37;;;;;;;0.00;0.00;;;;;;;8.32;58.99;99213.09;5110424;28;20250;-57
2022/04/10 08:50:04;;;;;;;0.00;0.00;;;;;;;8.73;58.57;99220.34;5110196;28;20199;-57
2022/04/10 08:52:32;;;;;;;0.00;0.00;;;;;;;8.82;57.07;99219.59;5110677;28;20187;-57
2022/04/10 08:54:59;;;;;;;0.00;0.00;;;;;;;8.96;59.06;99223.69;5110085;28;20270;-57
2022/04/10 08:57:26;;;;;;;0.00;0.00;;;;;;;9.26;58.18;99222.94;5110091;28;20194;-57
2022/04/10 08:59:56;;;;;;;0.00;0.00;;;;;;;9.62;54.34;99221.72;5111380;28;20237;-57
2022/04/10 09:02:24;;;;;;;0.00;0.00;;;;;;;9.41;53.85;99223.41;5114620;28;20197;-57
2022/04/10 09:04:51;;;;;;;0.00;0.00;;;;;;;9.04;55.79;99225.66;5113060;28;20544;-57
2022/04/10 09:07:18;;;;;;;0.00;0.00;;;;;;;9.51;54.36;99228.69;5114574;28;20196;-57
2022/04/10 09:09:53;;;;;;;0.00;0.00;;;;;;;9.56;56.37;99233.50;5113989;28;20233;-57
2022/04/10 09:12:20;;;;;;;0.00;0.00;;;;;;;9.66;55.62;99231.78;5114647;28;20674;-56
2022/04/10 09:14:49;;;;;;;0.00;0.00;;;;;;;9.94;56.54;99225.97;5114311;28;20178;-57
2022/04/10 09:17:18;;;;;;;0.00;0.00;;;;;;;9.98;57.05;99227.38;5114110;28;20504;-57
2022/04/10 09:19:46;;;;;;;0.07;0.03;;;;;;;10.15;53.53;99231.13;5114333;28;20182;-57
2022/04/10 09:22:28;;;;;;;4.27;3.20;;;;;;;9.75;53.32;99230.16;5114163;28;20198;-57
2022/04/10 09:25:18;;;;;;;4.13;3.30;;;;;;;9.72;53.20;99228.66;5113927;28;20245;-57
2022/04/10 09:27:46;;;;;;;5.83;3.50;;;;;;;9.72;53.25;99233.88;5109272;27;20246;-57
2022/04/10 09:30:17;;;;;;;6.77;3.73;;;;;;;9.36;54.44;99238.59;5113990;28;20226;-57
2022/04/10 09:32:45;;;;;;;6.57;3.47;;;;;;;9.20;49.27;99236.47;5114035;28;20233;-57
2022/04/10 09:35:15;;;;;;;6.27;3.80;;;;;;;9.14;51.53;99227.34;5098469;27;20203;-57
2022/04/10 09:37:59;;;;;;;8.00;3.30;;;;;;;9.10;53.83;99225.97;5093589;28;20200;-57
2022/04/10 09:40:32;;;;;;;6.27;3.33;;;;;;;9.36;52.67;99219.56;5093276;28;20183;-57
2022/04/10 09:43:04;;;;;;;5.73;3.50;;;;;;;9.59;53.43;99223.63;5093698;28;20199;-57
2022/04/10 09:45:33;;;;;;;6.60;3.47;;;;;;;9.75;53.72;99224.94;5100201;28;20597;-57
2022/04/10 09:48:18;;;;;;;6.60;3.77;;;;;;;9.85;50.90;99222.41;5113151;28;20301;-57
2022/04/10 09:50:46;;;;;;;6.67;3.80;;;;;;;9.63;48.64;99225.97;5113627;28;20351;-57
2022/04/10 09:53:12;;;;;;;4.43;3.07;;;;;;;9.38;52.22;99220.25;5113939;28;20194;-57
2022/04/10 09:55:42;;;;;;;9.80;5.10;;;;;;;9.06;53.34;99221.13;5113091;28;20221;-57
2022/04/10 09:58:10;;;;;;;5.30;3.83;;;;;;;9.11;52.24;99221.59;5113565;28;20195;-57
2022/04/10 10:00:40;;;;;;;5.97;3.53;;;;;;;9.16;52.32;99222.03;5113098;28;20189;-57
2022/04/10 10:03:08;;;;;;;5.43;3.87;;;;;;;9.08;53.71;99214.03;5113197;28;20180;-57
2022/04/10 10:05:36;;;;;;;6.47;3.20;;;;;;;8.99;54.57;99221.66;5113528;28;20404;-57
2022/04/10 10:08:03;;;;;;;9.07;4.10;;;;;;;8.50;55.46;99208.22;5113446;28;20234;-57
2022/04/10 10:10:31;;;;;;;6.27;4.33;;;;;;;8.56;55.86;99214.72;5112941;27;20215;-56
2022/04/10 10:13:02;;;;;;;5.23;3.97;;;;;;;8.65;54.76;99208.75;5112563;28;20188;-57
2022/04/10 10:15:29;;;;;;;8.03;4.10;;;;;;;8.57;55.35;99205.94;5112662;28;20183;-57
2022/04/10 10:17:56;;;;;;;6.33;3.70;;;;;;;8.69;54.92;99202.38;5113141;28;20285;-57
2022/04/10 10:20:24;;;;;;;9.03;4.80;;;;;;;8.77;53.78;99211.31;5112882;28;20222;-57
2022/04/10 10:22:51;;;;;;;11.13;4.50;;;;;;;8.63;53.27;99199.44;5113420;28;20190;-57
2022/04/10 10:25:27;;;;;;;7.30;4.47;;;;;;;8.95;52.55;99203.81;5112259;28;20187;-57
2022/04/10 10:28:44;;;;;;;7.80;4.27;;;;;;;8.84;52.55;99196.84;5113089;28;20202;-57
2022/04/10 10:31:37;;;;;;;8.23;4.63;;;;;;;8.76;51.65;99194.06;5049450;28;20216;-57
2022/04/10 10:34:07;;;;;;;7.53;4.03;;;;;;;9.50;51.48;99201.00;5107431;28;20200;-57
2022/04/10 10:36:35;;;;;;;5.60;4.30;;;;;;;10.11;48.25;99194.06;5092612;28;20194;-57
2022/04/10 10:39:06;;;;;;;4.93;4.00;;;;;;;10.65;46.22;99187.69;5092733;28;20201;-57
2022/04/10 10:41:37;;;;;;;6.80;4.33;;;;;;;10.33;46.19;99190.38;5092691;28;20180;-57
2022/04/10 10:44:42;;;;;;;15.50;8.57;;;;;;;10.17;47.42;99184.84;5092204;28;20575;-57
2022/04/10 10:47:26;;;;;;;8.10;4.67;;;;;;;10.47;48.25;99191.81;5094706;28;20201;-58
2022/04/10 10:49:55;;;;;;;4.97;3.23;;;;;;;10.67;52.81;99198.81;5090695;28;20216;-55
2022/04/10 10:52:23;;;;;;;6.07;4.23;;;;;;;10.67;46.32;99191.00;5092577;28;20181;-55
2022/04/10 10:54:55;;;;;;;6.97;3.60;;;;;;;10.40;46.36;99192.47;5092021;28;20261;-56
2022/04/10 10:57:24;;;;;;;5.93;3.87;;;;;;;10.59;48.27;99184.66;5092235;28;20188;-56
2022/04/10 10:59:53;;;;;;;7.10;3.70;;;;;;;10.81;47.02;99187.97;5092215;28;20185;-55
2022/04/10 11:02:21;;;;;;;7.37;3.63;;;;;;;11.15;47.19;99184.06;5091916;28;20192;-55
2022/04/10 11:04:50;;;;;;;6.70;3.87;;;;;;;11.33;42.88;99177.16;5092162;28;20282;-55
2022/04/10 11:07:25;;;;;;;6.63;4.00;;;;;;;11.06;44.72;99170.88;5092166;28;20192;-55
2022/04/10 11:09:58;;;;;;;7.30;3.83;;;;;;;10.91;45.32;99174.88;5091733;28;20250;-55
2022/04/10 11:12:30;;;;;;;12.27;3.70;;;;;;;10.89;42.85;99176.81;5092202;28;20212;-55
2022/04/10 11:15:03;;;;;;;6.03;3.93;;;;;;;10.97;46.45;99173.53;5091526;28;20185;-55
2022/04/10 11:17:31;;;;;;;7.60;4.13;;;;;;;10.83;43.92;99180.81;5091662;28;20762;-55
2022/04/10 11:20:00;;;;;;;6.17;3.27;;;;;;;10.89;44.28;99174.19;5091443;28;20183;-55
2022/04/10 11:22:33;;;;;;;5.83;3.30;;;;;;;11.00;44.80;99181.88;5091588;28;20777;-55
2022/04/10 11:25:01;;;;;;;8.93;3.93;;;;;;;10.46;45.61;99169.28;5090589;28;20226;-55
2022/04/10 11:27:41;;;;;;;6.30;4.00;;;;;;;10.53;45.96;99173.97;5091075;28;20208;-55
2022/04/10 11:30:13;;;;;;;6.50;3.90;;;;;;;10.51;46.01;99166.25;5089682;28;20207;-55
2022/04/10 11:32:45;;;;;;;5.23;3.80;;;;;;;10.16;45.63;99163.19;5090048;28;20195;-55
2022/04/10 11:35:16;;;;;;;5.83;3.67;;;;;;;9.84;47.92;99169.41;5090524;28;20718;-55
2022/04/10 11:37:47;;;;;;;12.37;4.50;;;;;;;9.30;48.96;99166.16;5091126;28;20292;-55
2022/04/10 11:40:18;;;;;;;7.60;4.37;;;;;;;8.99;49.04;99177.38;5090845;28;20191;-55
2022/04/10 11:42:44;;;;;;;6.67;4.10;;;;;;;8.75;52.82;99169.81;5091381;28;20271;-55
2022/04/10 11:45:12;;;;;;;6.70;3.80;;;;;;;8.83;53.58;99182.19;5090439;28;20264;-54
2022/04/10 11:47:42;;;;;;;9.80;6.50;;;;;;;8.77;50.56;99180.94;5096619;28;20694;-55
2022/04/10 11:50:13;;;;;;;6.17;4.77;;;;;;;8.67;54.53;99178.25;5086260;28;20216;-55
2022/04/10 11:52:55;;;;;;;6.73;4.63;;;;;;;8.91;53.65;99178.97;5085293;28;20507;-55
2022/04/10 11:55:22;;;;;;;9.73;5.13;;;;;;;9.39;60.69;99185.44;5071495;28;20192;-55